Lakeside, MT (59922)

7:12 AM MDT on October 23, 2014 (GMT -0600)
Lakeside | Change Station
CLOSE
Current Station
Personal Weather Station
Location: Lakeside, MT
Elevation: 2930 ft
Nearby Weather Stations

Elev 2930 ft 48.02 °N, 114.23 °W | Updated 8 minutes ago

Overcast
Overcast
51.7 °F
Feels Like 51.7 °F
N
2.0
Wind Variable Wind from SW

Today
High -- | Low -- °F
--% Chance of Precip.
Yesterday
High -- | Low -- °F
Precip. -- in
8:08 AM 6:33 PM
Waning Crescent, 0% visible
Pressure 29.88 in
Visibility 10.0 miles
Clouds Overcast 6000 ft
Dew Point 43 °F
Humidity 71%
Rainfall 0.00 in
Snow Depth 0 in
UV 0 out of 12
Pollen .40 out of 12
Air Quality Not available.
Flu Activity No Activity
METAR KMSO 231253Z 13004KT 10SM OVC060 09/04 A2988 RMK AO2 SLP119 T00890044

More Conditions Fewer Conditions

Pressure 29.88 in
Visibility 10.0 miles
Clouds Overcast 6000 ft
Dew Point 43 °F
Humidity 71%
Rainfall 0.00 in
Snow Depth 0 in
UV 0 out of 12
Pollen .40 out of 12
Air Quality Not available.
Flu Activity No Activity
METAR KMSO 231253Z 13004KT 10SM OVC060 09/04 A2988 RMK AO2 SLP119 T00890044

More Conditions Fewer Conditions

10-Day Weather Forecast

Almanac

Astronomy

Oct. 23, 2014 Rise Set
Actual Time 8:08 AM MDT 6:33 PM MDT
Civil Twilight 7:36 AM MDT 7:05 PM MDT
Nautical Twilight 7:00 AM MDT 7:41 PM MDT
Astronomical Twilight 6:24 AM MDT 8:17 PM MDT
Moon 7:50 AM MDT 6:37 PM MDT
Length of Visible Light 11h 28m
Length of Day
10h 25m
Tomorrow will be 3m 16s shorter.
Waning Crescent, 0% of the Moon is Illuminated
Today
Waning Crescent
Oct 23
New
Oct 30
First Quarter
Nov 6
Full
Nov 14
Last Quarter

Today's Extremes

State Highs State Lows

Community

WunderPhotos

Upload Photos

1,764,231 photos uploaded!

Nearby

Snow Depth

Station Depth Elevation
Noisy Basin 0 in 6040 ft
Bisson Creek 0 in 4925 ft
Moss Peak 0 in 6780 ft
Hand Creek 0 in 5035 ft
Kraft Creek 1 in 4750 ft

Earthquake Activity

City Distance Mag. Time & Date
No recent earthquake activity has been reported nearby.
Minimum magnitude displayed is 2.5.

Coastal Water Temperatures

Place Temperature
No Stations Reporting

Nearby Weather Stations